Chittenden, Vermont
Current Conditions -  °F | °C
As of 12:35 PM on Friday 24 Oct 2014 (Local Time) from KRUT Reporting Station
Overcast Overcast  
Wind Chill: 37°   Ceiling: 800
Heat Index: 43°   Visibility: 5mi
Dew Point: 39°   Wind: 12mph
Humidity: 87%   Direction: 310°NW
Pressure: 29.81"   Gusts: 18mph
Location:  43.71°N, 72.95°W
Report Text: KRUT 241635Z 31010G16KT 5SM OVC008 06/04 A2981 RMK AO1
Loading
Personal Weather Stations






























Interactive Weather Map
Tropical Storm Tracking
New forecast layout! Learn more

10-Day Weather Forecast

Advertisements
Track Severe Weather on mobile